Fort Collins, Colorado
Current Conditions -  °F | °C
As of 2:15 AM on Thursday 23 Oct 2014 (Local Time) from KFNL Reporting Station
Clear Clear  
Wind Chill: 38°   Ceiling: Unl
Heat Index: 43°   Visibility: 10mi
Dew Point: 36°   Wind: 8mph
Humidity: 76%   Direction: 360°N
Pressure: 30.16"   Gusts: NA
Location:  40.58°N, 105.07°W
Report Text: KFNL 230815Z AUTO 36007KT 10SM CLR 06/02 A3016 RMK AO1
Loading
Personal Weather Stations






























Interactive Weather Map New forecast layout! Learn more

10-Day Weather Forecast

Advertisements
Track Severe Weather on mobile